createdAt,value
2022-11-09T00:02:01.834Z,5.47
2022-11-09T00:04:32.841Z,6.03
2022-11-09T00:07:03.184Z,5.50
2022-11-09T00:09:33.234Z,4.47
2022-11-09T00:12:05.991Z,5.03
2022-11-09T00:14:38.066Z,5.55
2022-11-09T00:17:08.472Z,5.07
2022-11-09T00:19:38.423Z,5.25
2022-11-09T00:22:08.336Z,5.75
2022-11-09T00:24:39.130Z,5.25
2022-11-09T00:27:11.022Z,6.03
2022-11-09T00:29:43.202Z,4.82
2022-11-09T00:32:15.948Z,5.70
2022-11-09T00:34:47.413Z,5.82
2022-11-09T00:37:17.421Z,6.22
2022-11-09T00:39:47.978Z,7.25
2022-11-09T00:42:18.226Z,5.97
2022-11-09T00:44:48.567Z,4.50
2022-11-09T00:47:19.131Z,4.50
2022-11-09T00:49:49.717Z,5.45
2022-11-09T00:52:19.701Z,6.10
2022-11-09T00:54:50.288Z,5.53
2022-11-09T00:57:20.395Z,5.72
2022-11-09T00:59:50.489Z,5.88
2022-11-09T01:02:22.067Z,5.13
2022-11-09T01:04:53.542Z,5.78
2022-11-09T01:07:23.910Z,5.55
2022-11-09T01:09:57.176Z,5.45
2022-11-09T01:12:27.357Z,5.30
2022-11-09T01:14:58.304Z,6.25
2022-11-09T01:17:29.013Z,5.25
2022-11-09T01:19:59.516Z,5.60
2022-11-09T01:22:29.569Z,6.03
2022-11-09T01:25:00.472Z,5.80
2022-11-09T01:27:30.694Z,4.90
2022-11-09T01:30:00.713Z,4.65
2022-11-09T01:32:33.861Z,5.32
2022-11-09T01:35:04.851Z,6.20
2022-11-09T01:37:34.942Z,4.60
2022-11-09T01:40:05.379Z,4.70
2022-11-09T01:42:38.482Z,4.80
2022-11-09T01:45:21.918Z,4.82
2022-11-09T01:48:00.576Z,5.07
2022-11-09T01:50:47.469Z,4.60
2022-11-09T01:53:22.434Z,5.65
2022-11-09T01:55:53.932Z,4.95
2022-11-09T01:58:39.680Z,5.25
2022-11-09T02:01:12.332Z,5.60
2022-11-09T02:03:57.063Z,5.53
2022-11-09T02:06:29.002Z,5.75
2022-11-09T02:09:06.205Z,5.70
2022-11-09T02:11:36.135Z,5.50
2022-11-09T02:14:06.468Z,6.65
2022-11-09T02:16:36.956Z,5.18
2022-11-09T02:19:06.922Z,5.45
2022-11-09T02:21:42.254Z,5.65
2022-11-09T02:24:12.257Z,5.82
2022-11-09T02:26:52.630Z,5.88
2022-11-09T02:29:49.579Z,6.50
2022-11-09T02:32:27.614Z,7.43
2022-11-09T02:35:01.148Z,11.73
2022-11-09T02:37:37.092Z,10.73
2022-11-09T02:40:11.376Z,7.85
2022-11-09T02:42:41.363Z,7.70
2022-11-09T02:45:11.904Z,7.60
2022-11-09T02:47:43.574Z,7.30
2022-11-09T02:50:13.622Z,7.22
2022-11-09T02:52:43.685Z,6.47
2022-11-09T02:55:17.049Z,6.28
2022-11-09T02:57:47.535Z,6.07
2022-11-09T03:00:18.850Z,6.53
2022-11-09T03:02:49.211Z,5.97
2022-11-09T03:05:19.414Z,6.38
2022-11-09T03:07:49.442Z,5.80
2022-11-09T03:10:19.976Z,5.25
2022-11-09T03:12:50.676Z,7.22
2022-11-09T03:15:21.527Z,6.55
2022-11-09T03:17:51.857Z,6.47
2022-11-09T03:20:23.379Z,5.83
2022-11-09T03:22:53.340Z,6.63
2022-11-09T03:25:23.821Z,5.30
2022-11-09T03:28:01.157Z,5.22
2022-11-09T03:30:31.479Z,5.88
2022-11-09T03:33:12.045Z,5.50
2022-11-09T03:35:45.049Z,5.97
2022-11-09T03:38:21.985Z,5.38
2022-11-09T03:40:56.183Z,5.18
2022-11-09T03:43:26.271Z,5.75
2022-11-09T03:45:56.276Z,4.65
2022-11-09T03:48:26.355Z,5.10
2022-11-09T03:50:56.483Z,4.55
2022-11-09T03:53:27.375Z,5.25
2022-11-09T03:55:59.540Z,4.63
2022-11-09T03:58:29.472Z,5.18
2022-11-09T04:00:59.474Z,5.10
2022-11-09T04:03:29.449Z,4.68
2022-11-09T04:06:04.586Z,5.40
2022-11-09T04:08:34.988Z,4.13
2022-11-09T04:11:04.962Z,5.03
2022-11-09T04:13:35.786Z,4.70
2022-11-09T04:16:05.931Z,4.32
2022-11-09T04:18:35.959Z,5.13
2022-11-09T04:21:05.927Z,4.90
2022-11-09T04:23:38.477Z,5.28
2022-11-09T04:26:08.576Z,5.00
2022-11-09T04:28:38.472Z,4.88
2022-11-09T04:31:08.513Z,4.35
2022-11-09T04:33:38.603Z,5.40
2022-11-09T04:36:10.935Z,5.22
2022-11-09T04:38:40.892Z,5.25
2022-11-09T04:41:10.878Z,4.20
2022-11-09T04:43:40.883Z,4.90
2022-11-09T04:46:10.829Z,4.65
2022-11-09T04:48:41.211Z,5.05
2022-11-09T04:51:12.190Z,5.07
2022-11-09T04:53:42.255Z,4.93
2022-11-09T04:56:12.231Z,4.40
2022-11-09T04:58:42.601Z,5.00
2022-11-09T05:01:14.001Z,5.13
2022-11-09T05:03:45.136Z,4.57
2022-11-09T05:06:33.112Z,4.35
2022-11-09T05:09:08.338Z,5.95
2022-11-09T05:11:45.558Z,4.60
2022-11-09T05:14:16.356Z,6.50
2022-11-09T05:16:46.409Z,4.47
2022-11-09T05:19:16.584Z,4.13
2022-11-09T05:21:46.637Z,5.25
2022-11-09T05:24:16.732Z,4.63
2022-11-09T05:26:46.638Z,4.32
2022-11-09T05:29:16.655Z,4.55
2022-11-09T05:31:52.295Z,4.40
2022-11-09T05:34:22.604Z,4.43
2022-11-09T05:36:52.919Z,4.93
2022-11-09T05:39:23.169Z,4.35
2022-11-09T05:41:53.445Z,4.18
2022-11-09T05:44:23.399Z,4.40
2022-11-09T05:46:54.149Z,4.68
2022-11-09T05:49:24.188Z,4.78
2022-11-09T05:51:54.077Z,3.90
2022-11-09T05:54:24.796Z,4.30
2022-11-09T05:56:54.772Z,4.38
2022-11-09T05:59:24.834Z,4.60
2022-11-09T06:01:55.760Z,4.05
2022-11-09T06:04:26.640Z,4.63
2022-11-09T06:06:57.596Z,4.07
2022-11-09T06:09:28.899Z,3.35
2022-11-09T06:11:58.992Z,4.30
2022-11-09T06:14:29.083Z,3.70
2022-11-09T06:17:00.522Z,4.07
2022-11-09T06:19:31.877Z,3.42
2022-11-09T06:22:01.864Z,4.20
2022-11-09T06:24:32.032Z,4.38
2022-11-09T06:27:04.912Z,6.95
2022-11-09T06:29:35.053Z,8.63
2022-11-09T06:32:05.031Z,6.95
2022-11-09T06:34:34.994Z,7.18
2022-11-09T06:37:05.379Z,7.35
2022-11-09T06:39:35.362Z,6.38
2022-11-09T06:42:05.433Z,6.03
2022-11-09T06:44:35.489Z,6.80
2022-11-09T06:47:05.490Z,5.90
2022-11-09T06:49:35.407Z,6.20
2022-11-09T06:52:05.601Z,6.00
2022-11-09T06:54:35.846Z,5.28
2022-11-09T06:57:06.231Z,5.88
2022-11-09T06:59:36.877Z,5.47
2022-11-09T07:02:06.896Z,5.40
2022-11-09T07:04:36.845Z,5.57
2022-11-09T07:07:06.908Z,5.50
2022-11-09T07:09:36.956Z,5.63
2022-11-09T07:12:07.202Z,5.25
2022-11-09T07:14:37.395Z,4.97
2022-11-09T07:17:07.763Z,4.40
2022-11-09T07:19:39.566Z,4.88
2022-11-09T07:22:09.586Z,4.60
2022-11-09T07:24:39.532Z,4.38
2022-11-09T07:27:09.651Z,4.70
2022-11-09T07:29:39.957Z,4.28
2022-11-09T07:32:09.988Z,4.00
2022-11-09T07:34:40.047Z,3.90
2022-11-09T07:37:10.050Z,4.50
2022-11-09T07:39:56.651Z,4.63
2022-11-09T07:42:26.975Z,3.55
2022-11-09T07:44:57.112Z,4.55
2022-11-09T07:47:27.222Z,4.80
2022-11-09T07:49:57.184Z,3.95
2022-11-09T07:52:27.077Z,3.65
2022-11-09T07:54:57.147Z,3.53
2022-11-09T07:57:27.144Z,3.80
2022-11-09T07:59:57.124Z,3.50
2022-11-09T08:02:27.170Z,3.88
2022-11-09T08:04:57.269Z,4.82
2022-11-09T08:07:27.272Z,4.85
2022-11-09T08:09:57.234Z,4.03
2022-11-09T08:12:27.789Z,3.20
2022-11-09T08:14:58.278Z,4.00
2022-11-09T08:17:28.214Z,4.32
2022-11-09T08:19:58.212Z,3.83
2022-11-09T08:22:28.228Z,3.33
2022-11-09T08:24:58.248Z,4.25
2022-11-09T08:27:28.275Z,3.67
2022-11-09T08:29:58.452Z,4.05
2022-11-09T08:32:29.472Z,4.97
2022-11-09T08:34:59.429Z,5.10
2022-11-09T08:37:29.347Z,3.67
2022-11-09T08:39:59.536Z,4.05
2022-11-09T08:42:29.684Z,3.90
2022-11-09T08:44:59.800Z,4.13
2022-11-09T08:47:31.260Z,3.08
2022-11-09T08:50:02.178Z,4.25
2022-11-09T08:52:32.783Z,3.53
2022-11-09T08:55:03.088Z,3.85
2022-11-09T08:57:33.394Z,3.35
2022-11-09T09:00:09.762Z,3.80
2022-11-09T09:02:39.651Z,3.55
2022-11-09T09:05:10.230Z,3.80
2022-11-09T09:07:40.305Z,3.45
2022-11-09T09:10:10.633Z,4.07
2022-11-09T09:12:41.186Z,4.18
2022-11-09T09:15:11.515Z,3.92
2022-11-09T09:17:41.497Z,4.63
2022-11-09T09:20:12.444Z,3.42
2022-11-09T09:22:42.471Z,3.83
2022-11-09T09:25:12.559Z,4.05
2022-11-09T09:27:45.434Z,3.65
2022-11-09T09:30:18.049Z,3.88
2022-11-09T09:32:48.040Z,3.72
2022-11-09T09:35:18.043Z,3.67
2022-11-09T09:37:48.281Z,4.13
2022-11-09T09:41:08.065Z,3.92
2022-11-09T09:43:46.050Z,3.72
2022-11-09T09:46:42.175Z,3.35
2022-11-09T09:49:21.523Z,4.05
2022-11-09T09:51:55.600Z,3.63
2022-11-09T09:54:36.585Z,4.57
2022-11-09T09:57:06.611Z,4.13
2022-11-09T11:19:37.507Z,7.50
2022-11-09T11:22:28.459Z,4.57
2022-11-09T11:25:23.595Z,4.32
2022-11-09T11:28:21.653Z,4.00
2022-11-09T11:31:19.818Z,4.53
2022-11-09T11:34:26.598Z,5.13
2022-11-09T11:37:44.661Z,4.43
2022-11-09T11:40:43.254Z,4.43
2022-11-09T11:43:53.275Z,5.63
2022-11-09T11:46:49.542Z,4.00
2022-11-09T11:49:53.535Z,4.18
2022-11-09T11:53:11.269Z,4.88
2022-11-09T11:56:07.796Z,4.72
2022-11-09T11:59:13.496Z,5.22
2022-11-09T12:02:04.794Z,4.63
2022-11-09T12:05:17.488Z,5.15
2022-11-09T12:08:23.870Z,5.38
2022-11-09T12:11:34.626Z,5.38
2022-11-09T12:14:35.436Z,7.72
2022-11-09T12:17:50.058Z,5.68
2022-11-09T12:20:47.252Z,5.78
2022-11-09T12:23:49.025Z,4.88
2022-11-09T12:26:40.418Z,5.35
2022-11-09T12:29:37.019Z,5.47
2022-11-09T12:32:44.049Z,6.43
2022-11-09T12:35:32.223Z,6.78
2022-11-09T12:38:25.085Z,7.32
2022-11-09T12:41:16.465Z,6.97
2022-11-09T12:44:09.355Z,6.60
2022-11-09T12:47:06.904Z,9.38
2022-11-09T12:49:57.262Z,6.90
2022-11-09T12:52:46.485Z,5.88
2022-11-09T12:55:52.549Z,5.75
2022-11-09T12:58:44.271Z,6.35
2022-11-09T13:01:41.482Z,7.68
2022-11-09T13:04:30.281Z,6.75
2022-11-09T13:07:31.313Z,7.57
2022-11-09T13:10:30.302Z,6.00
2022-11-09T13:13:24.036Z,7.22
2022-11-09T13:16:22.041Z,9.02
2022-11-09T13:19:10.657Z,6.03
2022-11-09T13:21:58.897Z,7.15
2022-11-09T13:24:57.335Z,6.82
2022-11-09T13:27:49.440Z,7.88
2022-11-09T13:30:42.988Z,8.18
2022-11-09T13:33:32.252Z,6.47
2022-11-09T13:36:21.386Z,6.30
2022-11-09T13:39:41.663Z,7.63
2022-11-09T13:42:34.263Z,7.22
2022-11-09T13:45:51.579Z,7.15
2022-11-09T13:48:42.099Z,7.38
2022-11-09T13:51:40.233Z,7.20
2022-11-09T13:54:37.721Z,8.20
2022-11-09T13:57:27.041Z,7.93
2022-11-09T14:00:24.383Z,10.35
2022-11-09T14:03:26.873Z,7.93
2022-11-09T14:06:14.966Z,7.13
2022-11-09T14:09:03.403Z,8.18
2022-11-09T14:12:01.663Z,8.55
2022-11-09T14:15:33.601Z,7.00
2022-11-09T14:18:49.475Z,7.40
2022-11-09T14:21:50.464Z,7.55
2022-11-09T14:24:39.598Z,7.70
2022-11-09T14:27:28.605Z,7.82
2022-11-09T14:30:32.319Z,8.20
2022-11-09T14:33:31.598Z,8.25
2022-11-09T14:36:23.202Z,9.25
2022-11-09T14:39:29.358Z,8.30
2022-11-09T14:42:21.102Z,8.45
2022-11-09T14:45:16.297Z,8.13
2022-11-09T14:48:04.289Z,7.75
2022-11-09T14:50:55.710Z,8.00
2022-11-09T14:53:44.262Z,8.98
2022-11-09T14:56:34.563Z,9.35
2022-11-09T14:59:33.819Z,10.95
2022-11-09T15:02:22.768Z,8.98
2022-11-09T15:05:30.990Z,8.20
2022-11-09T15:08:23.322Z,8.90
2022-11-09T15:11:14.807Z,8.90
2022-11-09T15:14:12.340Z,9.88
2022-11-09T15:17:13.863Z,9.35
2022-11-09T15:20:06.283Z,10.33
2022-11-09T15:23:07.716Z,9.88
2022-11-09T15:25:57.584Z,8.98
2022-11-09T15:28:47.501Z,8.13
2022-11-09T15:31:35.937Z,9.00
2022-11-09T15:34:26.602Z,7.45
2022-11-09T15:37:50.966Z,8.38
2022-11-09T15:40:39.132Z,8.57
2022-11-09T15:43:28.401Z,9.45
2022-11-09T15:46:21.819Z,9.50
2022-11-09T15:49:27.121Z,9.10
2022-11-09T15:52:15.077Z,8.68
2022-11-09T15:55:03.422Z,8.60
2022-11-09T15:57:53.655Z,8.57
2022-11-09T16:00:41.926Z,9.15
2022-11-09T16:03:30.193Z,10.27
2022-11-09T16:06:24.853Z,8.35
2022-11-09T16:09:12.872Z,8.40
2022-11-09T16:12:00.926Z,9.13
2022-11-09T16:14:49.340Z,9.68
2022-11-09T16:17:37.188Z,10.82
2022-11-09T16:20:25.014Z,9.40
2022-11-09T16:23:13.169Z,10.30
2022-11-09T16:26:01.240Z,9.50
2022-11-09T16:28:50.577Z,9.27
2022-11-09T16:31:51.495Z,9.75
2022-11-09T16:34:40.443Z,9.18
2022-11-09T16:37:28.667Z,9.75
2022-11-09T16:40:16.754Z,10.18
2022-11-09T16:43:05.030Z,10.13
2022-11-09T16:45:52.989Z,10.57
2022-11-09T16:48:46.303Z,9.90
2022-11-09T16:51:35.887Z,11.77
2022-11-09T16:54:24.338Z,9.40
2022-11-09T16:57:12.339Z,10.40
2022-11-09T17:00:00.507Z,13.52
2022-11-09T17:02:48.747Z,9.10
2022-11-09T17:05:36.745Z,8.52
2022-11-09T17:08:24.748Z,10.20
2022-11-09T17:11:13.783Z,9.57
2022-11-09T17:14:02.194Z,10.43
2022-11-09T17:16:50.512Z,10.20
2022-11-09T17:19:38.887Z,9.02
2022-11-09T17:22:27.209Z,9.90
2022-11-09T17:25:16.805Z,11.07
2022-11-09T17:28:05.079Z,11.10
2022-11-09T17:30:53.533Z,10.00
2022-11-09T17:33:41.385Z,10.68
2022-11-09T17:36:49.213Z,9.55
2022-11-09T17:39:37.472Z,10.15
2022-11-09T17:42:25.747Z,9.10
2022-11-09T17:45:14.191Z,10.50
2022-11-09T17:48:02.925Z,9.55
2022-11-09T17:50:50.791Z,11.00
2022-11-09T17:53:39.212Z,8.80
2022-11-09T17:56:27.555Z,9.13
2022-11-09T17:59:15.614Z,8.70
2022-11-09T18:02:03.663Z,7.38
2022-11-09T18:04:51.466Z,8.48
2022-11-09T18:07:39.720Z,8.88
2022-11-09T18:10:27.738Z,8.38
2022-11-09T18:13:15.839Z,7.88
2022-11-09T18:16:09.460Z,8.88
2022-11-09T18:19:03.916Z,8.07
2022-11-09T18:21:52.128Z,7.90
2022-11-09T18:24:40.375Z,7.97
2022-11-09T18:27:30.525Z,7.85
2022-11-09T18:30:19.162Z,7.95
2022-11-09T18:33:07.488Z,6.78
2022-11-09T18:36:05.687Z,8.38
2022-11-09T18:38:56.323Z,7.90
2022-11-09T18:41:44.752Z,7.22
2022-11-09T18:44:33.260Z,7.38
2022-11-09T18:47:21.715Z,7.45
2022-11-09T18:50:09.836Z,7.47
2022-11-09T18:52:57.851Z,7.05
2022-11-09T18:55:45.737Z,7.75
2022-11-09T18:58:34.001Z,6.75
2022-11-09T19:01:24.318Z,7.78
2022-11-09T19:04:15.167Z,7.25
2022-11-09T19:07:03.556Z,6.90
2022-11-09T19:09:55.488Z,6.93
2022-11-09T19:12:44.857Z,7.10
2022-11-09T19:15:36.204Z,6.28
2022-11-09T19:18:24.427Z,7.22
2022-11-09T19:21:51.860Z,6.57
2022-11-09T19:24:39.927Z,6.60
2022-11-09T19:27:30.156Z,7.05
2022-11-09T19:30:18.498Z,7.20
2022-11-09T19:33:06.389Z,6.20
2022-11-09T19:36:23.207Z,6.93
2022-11-09T19:39:03.686Z,6.13
2022-11-09T19:41:51.665Z,6.88
2022-11-09T19:44:39.617Z,7.05
2022-11-09T19:47:27.783Z,8.18
2022-11-09T19:50:16.040Z,6.55
2022-11-09T19:53:04.239Z,6.55
2022-11-09T19:55:52.146Z,6.43
2022-11-09T19:58:40.328Z,7.00
2022-11-09T20:01:28.567Z,7.50
2022-11-09T20:04:16.863Z,6.95
2022-11-09T20:07:05.047Z,5.10
2022-11-09T20:09:53.945Z,6.72
2022-11-09T20:12:51.402Z,6.65
2022-11-09T20:15:39.495Z,6.95
2022-11-09T20:18:30.247Z,6.40
2022-11-09T20:21:18.795Z,7.45
2022-11-09T20:24:07.663Z,5.90
2022-11-09T20:26:55.667Z,6.95
2022-11-09T20:29:43.668Z,6.55
2022-11-09T20:32:31.713Z,5.93
2022-11-09T20:35:19.976Z,6.60
2022-11-09T20:38:08.321Z,5.63
2022-11-09T20:40:59.524Z,6.97
2022-11-09T20:43:47.602Z,6.75
2022-11-09T20:46:36.822Z,6.00
2022-11-09T20:49:24.977Z,5.88
2022-11-09T20:52:13.239Z,6.10
2022-11-09T20:55:01.374Z,5.63
2022-11-09T20:57:49.300Z,6.03
2022-11-09T21:00:38.779Z,5.90
2022-11-09T21:03:28.054Z,5.65
2022-11-09T21:06:16.347Z,5.65
2022-11-09T21:09:06.816Z,4.95
2022-11-09T21:12:12.649Z,5.80
2022-11-09T21:15:00.661Z,5.50
2022-11-09T21:17:48.912Z,5.55
2022-11-09T21:20:38.025Z,5.85
2022-11-09T21:23:26.047Z,5.53
2022-11-09T21:26:32.002Z,5.25
2022-11-09T21:29:42.419Z,4.45
2022-11-09T21:32:31.787Z,5.60
2022-11-09T21:35:20.117Z,4.55
2022-11-09T21:38:08.142Z,4.57
2022-11-09T21:40:56.464Z,4.60
2022-11-09T21:43:44.556Z,4.95
2022-11-09T21:46:32.698Z,4.93
2022-11-09T21:49:20.591Z,4.35
2022-11-09T21:52:08.901Z,5.18
2022-11-09T21:54:57.554Z,5.38
2022-11-09T21:57:45.703Z,4.50
2022-11-09T22:00:33.977Z,4.93
2022-11-09T22:03:22.486Z,4.55
2022-11-09T22:06:11.268Z,4.35
2022-11-09T22:08:59.822Z,4.05
2022-11-09T22:12:07.154Z,4.00
2022-11-09T22:15:13.234Z,3.97
2022-11-09T22:18:01.085Z,4.40
2022-11-09T22:20:58.374Z,4.65
2022-11-09T22:24:05.435Z,4.35
2022-11-09T22:26:53.794Z,4.43
2022-11-09T22:29:41.880Z,4.97
2022-11-09T22:32:30.228Z,4.50
2022-11-09T22:35:18.252Z,4.43
2022-11-09T22:38:06.242Z,4.30
2022-11-09T22:40:54.578Z,4.53
2022-11-09T22:43:44.977Z,3.97
2022-11-09T22:46:33.243Z,3.55
2022-11-09T22:49:21.328Z,4.47
2022-11-09T22:52:09.715Z,3.95
2022-11-09T22:54:57.593Z,3.42
2022-11-09T22:57:45.845Z,3.85
2022-11-09T23:00:33.714Z,4.40
2022-11-09T23:03:22.868Z,3.75
2022-11-09T23:06:20.389Z,3.90
2022-11-09T23:09:08.374Z,3.53
2022-11-09T23:11:56.437Z,4.10
2022-11-09T23:15:02.522Z,3.75
2022-11-09T23:18:08.640Z,3.25
2022-11-09T23:20:56.923Z,3.85
2022-11-09T23:23:45.157Z,3.20
2022-11-09T23:26:34.121Z,3.15
2022-11-09T23:29:22.273Z,3.75
2022-11-09T23:32:10.175Z,3.40
2022-11-09T23:34:58.356Z,3.10
2022-11-09T23:37:46.778Z,3.38
2022-11-09T23:40:36.304Z,3.58
2022-11-09T23:43:24.461Z,2.83
2022-11-09T23:46:14.658Z,3.83
2022-11-09T23:49:02.881Z,3.72
2022-11-09T23:51:50.978Z,2.88
2022-11-09T23:54:39.229Z,3.28
2022-11-09T23:57:27.542Z,3.40
